createdAt,value
2022-09-12T00:00:12.086Z,81.50
2022-09-12T00:01:19.503Z,81.40
2022-09-12T00:02:22.470Z,81.40
2022-09-12T00:03:25.807Z,81.40
2022-09-12T00:04:30.383Z,81.40
2022-09-12T00:05:34.090Z,81.40
2022-09-12T00:06:37.905Z,81.40
2022-09-12T00:07:43.303Z,81.40
2022-09-12T00:08:45.969Z,81.40
2022-09-12T00:09:51.037Z,81.30
2022-09-12T00:10:53.353Z,81.40
2022-09-12T00:11:56.608Z,81.30
2022-09-12T00:12:59.003Z,81.40
2022-09-12T00:14:03.526Z,81.50
2022-09-12T00:15:07.766Z,81.50
2022-09-12T00:16:18.427Z,81.50
2022-09-12T00:17:20.912Z,81.50
2022-09-12T00:18:24.381Z,81.60
2022-09-12T00:19:27.147Z,81.80
2022-09-12T00:20:30.673Z,81.70
2022-09-12T00:21:34.908Z,81.70
2022-09-12T00:22:38.664Z,81.70
2022-09-12T00:23:41.003Z,81.70
2022-09-12T00:24:44.537Z,81.70
2022-09-12T00:25:49.434Z,81.60
2022-09-12T00:26:52.787Z,81.70
2022-09-12T00:27:55.078Z,81.80
2022-09-12T00:28:59.257Z,81.80
2022-09-12T00:30:01.750Z,81.80
2022-09-12T00:31:07.905Z,81.80
2022-09-12T00:32:10.665Z,81.80
2022-09-12T00:33:19.269Z,82.00
2022-09-12T00:34:21.923Z,82.00
2022-09-12T00:35:25.385Z,82.00
2022-09-12T00:36:31.162Z,82.00
2022-09-12T00:37:36.225Z,82.20
2022-09-12T00:38:42.214Z,82.20
2022-09-12T00:39:45.179Z,82.30
2022-09-12T00:40:51.049Z,82.30
2022-09-12T00:41:57.190Z,82.40
2022-09-12T00:43:03.020Z,82.30
2022-09-12T00:44:48.935Z,82.20
2022-09-12T00:45:51.449Z,82.20
2022-09-12T00:46:59.637Z,82.20
2022-09-12T00:48:04.472Z,82.00
2022-09-12T00:49:15.227Z,82.00
2022-09-12T00:50:18.645Z,82.00
2022-09-12T00:51:22.801Z,82.20
2022-09-12T00:52:32.779Z,82.20
2022-09-12T00:53:36.613Z,82.30
2022-09-12T00:54:45.056Z,82.40
2022-09-12T00:55:53.572Z,82.40
2022-09-12T00:57:01.511Z,82.40
2022-09-12T00:58:10.588Z,82.40
2022-09-12T00:59:18.543Z,82.70
2022-09-12T01:00:24.698Z,82.80
2022-09-12T01:01:32.432Z,82.80
2022-09-12T01:02:35.756Z,82.70
2022-09-12T01:03:39.340Z,82.70
2022-09-12T01:04:44.465Z,82.70
2022-09-12T01:05:59.977Z,82.70
2022-09-12T01:07:05.464Z,82.70
2022-09-12T01:08:08.921Z,82.80
2022-09-12T01:09:16.062Z,82.90
2022-09-12T01:10:20.744Z,82.90
2022-09-12T01:11:24.647Z,83.20
2022-09-12T01:12:28.753Z,83.20
2022-09-12T01:13:33.906Z,83.30
2022-09-12T01:14:37.723Z,83.30
2022-09-12T01:15:40.751Z,83.40
2022-09-12T01:16:46.022Z,83.50
2022-09-12T01:18:11.789Z,83.40
2022-09-12T01:19:48.715Z,83.40
2022-09-12T01:21:15.793Z,83.50
2022-09-12T01:22:52.073Z,83.50
2022-09-12T01:24:35.644Z,83.70
2022-09-12T01:25:59.403Z,83.60
2022-09-12T01:27:50.150Z,83.60
2022-09-12T01:29:14.287Z,84.10
2022-09-12T01:30:41.381Z,83.90
2022-09-12T01:31:53.134Z,83.70
2022-09-12T01:33:16.920Z,83.60
2022-09-12T01:34:26.356Z,83.60
2022-09-12T01:35:39.441Z,83.50
2022-09-12T01:36:53.888Z,83.40
2022-09-12T01:38:11.861Z,83.50
2022-09-12T01:39:27.812Z,83.40
2022-09-12T01:40:38.511Z,83.50
2022-09-12T01:41:52.058Z,83.40
2022-09-12T01:43:04.309Z,83.40
2022-09-12T01:44:19.753Z,83.30
2022-09-12T01:45:33.484Z,83.40
2022-09-12T01:46:45.488Z,83.50
2022-09-12T01:47:55.942Z,83.50
2022-09-12T01:49:07.172Z,83.40
2022-09-12T01:50:16.244Z,83.30
2022-09-12T01:51:21.978Z,83.30
2022-09-12T01:52:33.408Z,83.30
2022-09-12T01:53:42.326Z,83.30
2022-09-12T01:54:55.141Z,83.30
2022-09-12T01:56:07.356Z,83.50
2022-09-12T01:57:18.745Z,83.50
2022-09-12T01:58:30.552Z,83.50
2022-09-12T01:59:40.742Z,83.70
2022-09-12T02:00:55.734Z,83.70
2022-09-12T02:02:06.306Z,83.90
2022-09-12T02:03:12.572Z,84.10
2022-09-12T02:04:22.662Z,84.30
2022-09-12T02:05:33.308Z,84.20
2022-09-12T02:06:42.573Z,84.10
2022-09-12T02:07:49.938Z,84.00
2022-09-12T02:08:57.195Z,84.00
2022-09-12T02:10:07.809Z,84.20
2022-09-12T02:11:14.136Z,84.20
2022-09-12T02:12:23.082Z,84.20
2022-09-12T02:13:36.596Z,84.10
2022-09-12T02:14:47.770Z,84.20
2022-09-12T02:15:58.271Z,84.20
2022-09-12T02:17:10.822Z,84.10
2022-09-12T02:18:18.071Z,84.00
2022-09-12T02:19:23.697Z,84.00
2022-09-12T02:20:47.301Z,83.90
2022-09-12T02:21:57.399Z,83.90
2022-09-12T02:23:03.533Z,84.10
2022-09-12T02:24:13.313Z,84.10
2022-09-12T02:25:20.111Z,84.10
2022-09-12T02:26:30.624Z,84.10
2022-09-12T02:27:38.359Z,84.30
2022-09-12T02:28:44.316Z,84.20
2022-09-12T02:29:47.122Z,84.20
2022-09-12T02:30:58.865Z,84.10
2022-09-12T02:32:06.133Z,84.10
2022-09-12T02:33:21.785Z,84.10
2022-09-12T02:34:41.442Z,84.10
2022-09-12T02:35:52.318Z,84.10
2022-09-12T02:37:07.079Z,84.30
2022-09-12T02:38:17.867Z,84.30
2022-09-12T02:39:21.299Z,84.20
2022-09-12T02:40:25.732Z,84.30
2022-09-12T02:41:28.741Z,84.50
2022-09-12T02:42:32.106Z,84.50
2022-09-12T02:43:34.841Z,84.50
2022-09-12T02:44:38.654Z,84.50
2022-09-12T02:45:41.450Z,84.40
2022-09-12T02:46:50.540Z,84.50
2022-09-12T02:47:57.216Z,84.60
2022-09-12T02:49:01.015Z,84.50
2022-09-12T02:50:05.444Z,84.50
2022-09-12T02:51:08.795Z,84.60
2022-09-12T02:52:11.417Z,84.50
2022-09-12T02:53:17.313Z,84.40
2022-09-12T02:54:21.130Z,84.40
2022-09-12T02:55:25.320Z,84.60
2022-09-12T02:56:31.061Z,84.70
2022-09-12T02:57:34.751Z,84.90
2022-09-12T02:58:39.377Z,85.10
2022-09-12T02:59:43.149Z,84.90
2022-09-12T03:00:51.567Z,84.90
2022-09-12T03:02:16.810Z,85.10
2022-09-12T03:03:46.115Z,85.10
2022-09-12T03:05:05.607Z,85.20
2022-09-12T03:06:18.654Z,85.00
2022-09-12T03:07:38.630Z,85.20
2022-09-12T03:09:00.437Z,85.20
2022-09-12T03:10:14.985Z,85.30
2022-09-12T03:11:39.445Z,85.30
2022-09-12T03:12:53.987Z,85.40
2022-09-12T03:14:11.093Z,85.40
2022-09-12T03:15:30.055Z,85.80
2022-09-12T03:16:42.495Z,86.00
2022-09-12T03:18:06.386Z,86.10
2022-09-12T03:19:24.067Z,86.10
2022-09-12T03:21:58.717Z,86.10
2022-09-12T03:23:08.193Z,86.00
2022-09-12T03:24:18.539Z,86.00
2022-09-12T03:25:28.152Z,85.90
2022-09-12T03:26:38.016Z,85.90
2022-09-12T03:27:46.480Z,85.80
2022-09-12T03:28:52.390Z,85.90
2022-09-12T03:29:55.872Z,85.90
2022-09-12T03:30:59.621Z,85.80
2022-09-12T03:32:02.531Z,86.10
2022-09-12T03:33:13.134Z,86.10
2022-09-12T03:34:15.451Z,86.20
2022-09-12T03:35:23.269Z,86.10
2022-09-12T03:36:30.744Z,86.10
2022-09-12T03:37:33.084Z,86.10
2022-09-12T03:38:36.522Z,86.20
2022-09-12T03:39:39.195Z,86.30
2022-09-12T03:40:43.360Z,86.20
2022-09-12T03:41:45.613Z,86.40
2022-09-12T03:42:49.049Z,86.50
2022-09-12T03:43:56.858Z,86.50
2022-09-12T03:44:59.325Z,86.50
2022-09-12T03:46:02.762Z,86.50
2022-09-12T03:47:09.239Z,86.50
2022-09-12T03:48:15.840Z,86.50
2022-09-12T03:49:18.554Z,86.40
2022-09-12T03:50:21.861Z,86.30
2022-09-12T03:51:24.252Z,86.40
2022-09-12T03:52:27.844Z,86.50
2022-09-12T03:53:30.456Z,86.60
2022-09-12T03:54:36.110Z,86.70
2022-09-12T03:55:39.487Z,86.70
2022-09-12T03:56:42.928Z,86.80
2022-09-12T03:57:45.299Z,86.70
2022-09-12T03:58:48.805Z,86.70
2022-09-12T03:59:53.208Z,86.80
2022-09-12T04:00:56.432Z,87.00
2022-09-12T04:01:58.727Z,87.10
2022-09-12T04:03:02.208Z,87.10
2022-09-12T04:04:05.905Z,86.90
2022-09-12T04:05:10.096Z,86.90
2022-09-12T04:06:15.248Z,86.90
2022-09-12T04:07:19.075Z,87.00
2022-09-12T04:08:21.582Z,86.90
2022-09-12T04:09:25.738Z,86.90
2022-09-12T04:10:28.159Z,86.90
2022-09-12T04:11:33.646Z,86.80
2022-09-12T04:12:35.934Z,86.80
2022-09-12T04:13:41.503Z,86.70
2022-09-12T04:14:43.929Z,86.70
2022-09-12T04:15:58.269Z,86.80
2022-09-12T04:17:00.800Z,87.00
2022-09-12T04:18:06.158Z,87.00
2022-09-12T04:19:11.497Z,87.20
2022-09-12T04:20:14.829Z,87.10
2022-09-12T04:21:20.042Z,87.20
2022-09-12T04:22:23.802Z,87.10
2022-09-12T04:23:26.103Z,87.10
2022-09-12T04:24:29.435Z,87.00
2022-09-12T04:25:31.764Z,86.90
2022-09-12T04:26:35.096Z,87.20
2022-09-12T04:27:37.701Z,87.30
2022-09-12T04:28:42.377Z,87.20
2022-09-12T04:29:44.783Z,87.20
2022-09-12T04:30:48.151Z,87.20
2022-09-12T04:31:50.660Z,87.20
2022-09-12T04:32:53.929Z,87.30
2022-09-12T04:33:58.695Z,87.30
2022-09-12T04:35:03.303Z,87.30
2022-09-12T04:36:08.420Z,87.30
2022-09-12T04:37:11.973Z,87.30
2022-09-12T04:38:14.493Z,87.40
2022-09-12T04:39:18.002Z,87.40
2022-09-12T04:40:20.507Z,87.40
2022-09-12T04:41:26.307Z,87.40
2022-09-12T04:42:29.642Z,87.40
2022-09-12T04:43:33.060Z,87.20
2022-09-12T04:44:35.423Z,87.20
2022-09-12T04:45:38.776Z,87.30
2022-09-12T04:46:44.558Z,87.30
2022-09-12T04:47:47.815Z,87.50
2022-09-12T04:48:53.369Z,87.50
2022-09-12T04:49:59.199Z,87.40
2022-09-12T04:51:10.067Z,87.30
2022-09-12T04:52:13.452Z,87.40
2022-09-12T04:53:15.847Z,87.40
2022-09-12T04:54:21.724Z,87.50
2022-09-12T04:55:25.535Z,87.60
2022-09-12T04:56:29.938Z,87.50
2022-09-12T04:57:35.184Z,87.40
2022-09-12T04:58:39.971Z,87.50
2022-09-12T04:59:42.685Z,87.60
2022-09-12T05:00:45.993Z,87.80
2022-09-12T05:01:48.767Z,87.80
2022-09-12T05:02:52.292Z,87.70
2022-09-12T05:03:59.834Z,87.70
2022-09-12T05:05:03.128Z,87.60
2022-09-12T05:06:09.257Z,87.70
2022-09-12T05:07:12.703Z,87.60
2022-09-12T05:08:15.384Z,87.40
2022-09-12T05:09:18.936Z,87.50
2022-09-12T05:10:23.862Z,87.60
2022-09-12T05:11:53.063Z,87.50
2022-09-12T05:12:55.133Z,87.30
2022-09-12T05:13:57.675Z,87.40
2022-09-12T05:15:00.967Z,87.50
2022-09-12T05:16:07.214Z,87.40
2022-09-12T05:17:10.658Z,87.30
2022-09-12T05:18:12.914Z,87.30
2022-09-12T05:19:18.909Z,87.10
2022-09-12T05:20:21.255Z,87.10
2022-09-12T05:21:27.141Z,87.10
2022-09-12T05:22:29.661Z,87.00
2022-09-12T05:23:33.950Z,86.90
2022-09-12T05:24:37.901Z,86.80
2022-09-12T05:25:41.267Z,86.80
2022-09-12T05:26:43.934Z,86.80
2022-09-12T05:27:50.460Z,86.80
2022-09-12T05:28:53.931Z,86.70
2022-09-12T05:29:57.207Z,86.80
2022-09-12T05:31:03.410Z,86.80
2022-09-12T05:32:09.694Z,86.70
2022-09-12T05:33:12.197Z,86.70
2022-09-12T05:34:15.402Z,86.60
2022-09-12T05:35:18.479Z,86.50
2022-09-12T05:36:26.165Z,86.70
2022-09-12T05:37:30.311Z,86.70
2022-09-12T05:38:35.591Z,86.70
2022-09-12T05:39:38.884Z,86.60
2022-09-12T05:40:41.240Z,86.70
2022-09-12T05:41:44.643Z,86.60
2022-09-12T05:42:47.041Z,86.60
2022-09-12T05:43:54.545Z,86.70
2022-09-12T05:44:57.360Z,86.60
2022-09-12T05:46:04.138Z,86.60
2022-09-12T05:47:07.613Z,86.50
2022-09-12T05:48:09.958Z,86.50
2022-09-12T05:49:14.760Z,86.60
2022-09-12T05:50:17.341Z,86.50
2022-09-12T05:51:26.536Z,86.50
2022-09-12T05:52:28.796Z,86.60
2022-09-12T05:53:32.684Z,86.60
2022-09-12T05:54:35.969Z,86.60
2022-09-12T05:55:38.293Z,86.70
2022-09-12T05:56:45.134Z,86.90
2022-09-12T05:57:47.468Z,87.10
2022-09-12T05:59:02.499Z,87.20
2022-09-12T06:00:08.784Z,87.10
2022-09-12T06:01:17.530Z,87.00
2022-09-12T06:02:20.758Z,87.10
2022-09-12T06:03:23.296Z,87.10
2022-09-12T06:04:27.952Z,87.20
2022-09-12T06:05:30.954Z,87.20
2022-09-12T06:06:41.666Z,87.00
2022-09-12T06:07:45.543Z,87.00
2022-09-12T06:08:53.544Z,86.90
2022-09-12T06:09:55.772Z,86.80
2022-09-12T06:11:04.381Z,86.70
2022-09-12T06:12:08.708Z,86.70
2022-09-12T06:13:10.945Z,86.70
2022-09-12T06:14:19.435Z,86.60
2022-09-12T06:15:21.752Z,86.50
2022-09-12T06:16:28.349Z,86.40
2022-09-12T06:17:30.772Z,86.30
2022-09-12T06:18:34.025Z,86.20
2022-09-12T06:19:36.472Z,86.10
2022-09-12T06:20:39.789Z,86.10
2022-09-12T06:21:43.741Z,86.10
2022-09-12T06:22:48.224Z,86.10
2022-09-12T06:23:50.895Z,86.20
2022-09-12T06:24:57.835Z,86.20
2022-09-12T06:26:00.819Z,86.10
2022-09-12T06:27:04.200Z,86.20
2022-09-12T06:28:06.525Z,86.10
2022-09-12T06:29:11.643Z,85.80
2022-09-12T06:30:14.271Z,85.80
2022-09-12T06:31:20.245Z,85.70
2022-09-12T06:32:22.559Z,85.60
2022-09-12T06:33:25.865Z,85.50
2022-09-12T06:34:29.324Z,85.40
2022-09-12T06:35:31.655Z,85.40
2022-09-12T06:36:39.413Z,85.20
2022-09-12T06:37:45.843Z,84.80
2022-09-12T06:38:48.804Z,84.10
2022-09-12T06:39:52.357Z,83.50
2022-09-12T06:40:54.625Z,83.10
2022-09-12T06:41:58.216Z,82.20
2022-09-12T06:43:09.456Z,81.40
2022-09-12T06:44:16.188Z,80.70
2022-09-12T06:45:21.440Z,79.80
2022-09-12T06:46:25.638Z,78.80
2022-09-12T06:47:28.191Z,77.90
2022-09-12T06:48:31.584Z,76.60
2022-09-12T06:49:35.491Z,75.60
2022-09-12T06:50:37.808Z,75.20
2022-09-12T06:51:43.580Z,74.70
2022-09-12T06:52:49.858Z,73.40
2022-09-12T06:53:55.516Z,72.20
2022-09-12T06:55:00.875Z,71.70
2022-09-12T06:56:06.779Z,70.80
2022-09-12T06:57:10.027Z,70.50
2022-09-12T06:58:12.443Z,70.30
2022-09-12T06:59:15.806Z,69.40
2022-09-12T07:00:18.375Z,69.20
2022-09-12T07:01:23.614Z,68.30
2022-09-12T07:02:25.937Z,68.00
2022-09-12T07:03:29.433Z,67.40
2022-09-12T07:04:33.647Z,67.30
2022-09-12T07:05:37.392Z,67.20
2022-09-12T07:06:44.105Z,67.30
2022-09-12T07:07:47.781Z,67.20
2022-09-12T07:08:53.325Z,67.00
2022-09-12T07:09:58.421Z,67.10
2022-09-12T07:11:12.686Z,66.90
2022-09-12T07:12:15.120Z,66.60
2022-09-12T07:13:18.354Z,66.20
2022-09-12T07:14:26.018Z,66.40
2022-09-12T07:15:31.302Z,66.00
2022-09-12T07:16:36.989Z,65.50
2022-09-12T07:17:41.765Z,64.80
2022-09-12T07:18:46.234Z,64.60
2022-09-12T07:19:48.487Z,64.50
2022-09-12T07:20:52.059Z,63.90
2022-09-12T07:21:58.813Z,63.40
2022-09-12T07:23:04.844Z,62.70
2022-09-12T07:24:09.817Z,61.80
2022-09-12T07:25:12.079Z,61.30
2022-09-12T07:26:18.027Z,60.40
2022-09-12T07:27:20.415Z,59.60
2022-09-12T07:28:23.734Z,59.60
2022-09-12T07:29:37.909Z,59.80
2022-09-12T07:30:43.623Z,59.60
2022-09-12T07:31:47.245Z,59.00
2022-09-12T07:32:54.737Z,59.40
2022-09-12T07:33:58.352Z,58.90
2022-09-12T07:35:00.774Z,58.80
2022-09-12T07:36:05.716Z,58.60
2022-09-12T07:37:07.990Z,58.10
2022-09-12T07:38:12.612Z,58.00
2022-09-12T07:39:16.414Z,57.80
2022-09-12T07:40:19.703Z,58.00
2022-09-12T07:41:23.921Z,58.00
2022-09-12T07:42:29.901Z,58.10
2022-09-12T07:43:32.234Z,57.90
2022-09-12T07:44:35.661Z,57.70
2022-09-12T07:45:42.441Z,57.10
2022-09-12T07:46:45.803Z,57.10
2022-09-12T07:47:49.648Z,57.20
2022-09-12T07:48:53.507Z,56.40
2022-09-12T07:49:56.588Z,55.90
2022-09-12T07:51:00.864Z,56.00
2022-09-12T07:52:06.473Z,54.90
2022-09-12T07:53:09.781Z,55.00
2022-09-12T07:54:14.675Z,55.40
2022-09-12T07:55:17.447Z,55.30
2022-09-12T07:56:25.021Z,54.90
2022-09-12T07:57:30.838Z,54.00
2022-09-12T07:58:36.410Z,53.60
2022-09-12T07:59:52.630Z,53.30
2022-09-12T08:01:02.511Z,53.30
2022-09-12T08:02:06.117Z,53.30
2022-09-12T08:03:10.359Z,53.30
2022-09-12T08:04:13.806Z,52.80
2022-09-12T08:05:16.419Z,52.80
2022-09-12T08:06:24.236Z,52.90
2022-09-12T08:07:27.745Z,52.10
2022-09-12T08:08:32.566Z,52.20
2022-09-12T08:09:37.629Z,51.40
2022-09-12T08:10:40.054Z,51.60
2022-09-12T08:11:43.867Z,51.50
2022-09-12T08:12:46.187Z,51.00
2022-09-12T08:13:55.644Z,51.40
2022-09-12T08:14:59.594Z,50.40
2022-09-12T08:16:04.891Z,50.40
2022-09-12T08:17:08.423Z,49.80
2022-09-12T08:18:11.421Z,49.90
2022-09-12T08:19:15.071Z,49.80
2022-09-12T08:20:18.037Z,48.60
2022-09-12T08:21:26.686Z,48.40
2022-09-12T08:22:32.231Z,48.10
2022-09-12T08:23:35.262Z,48.00
2022-09-12T08:24:40.486Z,48.00
2022-09-12T08:25:43.810Z,48.10
2022-09-12T08:26:49.307Z,48.20
2022-09-12T08:27:52.423Z,48.20
2022-09-12T08:28:58.335Z,48.50
2022-09-12T08:30:01.771Z,48.50
2022-09-12T08:31:06.487Z,48.70
2022-09-12T08:32:10.653Z,48.40
2022-09-12T08:33:15.294Z,48.00
2022-09-12T08:34:19.237Z,48.30
2022-09-12T08:35:24.034Z,46.90
2022-09-12T08:36:29.732Z,47.90
2022-09-12T08:37:32.304Z,47.50
2022-09-12T08:38:38.898Z,47.70
2022-09-12T08:39:43.915Z,46.90
2022-09-12T08:41:00.174Z,46.70
2022-09-12T08:42:08.021Z,46.70
2022-09-12T08:43:29.545Z,46.60
2022-09-12T08:45:06.821Z,46.60
2022-09-12T08:46:17.605Z,46.40
2022-09-12T08:47:29.729Z,45.10
2022-09-12T08:48:35.290Z,45.00
2022-09-12T08:49:58.912Z,45.40
2022-09-12T08:51:06.223Z,44.90
2022-09-12T08:52:14.771Z,45.10
2022-09-12T08:53:20.345Z,44.10
2022-09-12T08:54:28.628Z,44.70
2022-09-12T08:55:37.346Z,44.50
2022-09-12T08:56:42.213Z,44.60
2022-09-12T08:57:47.800Z,44.70
2022-09-12T08:58:51.064Z,44.70
2022-09-12T09:01:09.575Z,43.90
2022-09-12T09:03:01.892Z,43.40
2022-09-12T09:04:38.996Z,44.50
2022-09-12T09:05:51.356Z,43.70
2022-09-12T09:07:16.816Z,43.80
2022-09-12T09:08:42.091Z,43.10
2022-09-12T09:10:02.091Z,43.50
2022-09-12T09:11:23.100Z,43.50
2022-09-12T09:12:34.503Z,43.60
2022-09-12T09:14:13.095Z,43.50
2022-09-12T09:15:35.657Z,43.70
2022-09-12T09:16:42.137Z,43.50
2022-09-12T09:17:50.404Z,43.60
2022-09-12T09:18:54.920Z,43.50
2022-09-12T09:21:23.080Z,43.00
2022-09-12T09:22:37.511Z,41.90
2022-09-12T09:23:46.780Z,43.00
2022-09-12T09:24:54.002Z,41.90
2022-09-12T09:26:03.688Z,42.00
2022-09-12T09:27:37.058Z,42.00
2022-09-12T09:28:47.674Z,42.10
2022-09-12T09:29:57.253Z,41.50
2022-09-12T09:30:59.659Z,40.80
2022-09-12T09:32:12.030Z,41.60
2022-09-12T09:33:22.453Z,41.50
2022-09-12T09:34:29.974Z,41.80
2022-09-12T09:35:44.906Z,42.00
2022-09-12T09:36:54.748Z,40.60
2022-09-12T09:38:12.462Z,42.10
2022-09-12T09:39:40.846Z,41.70
2022-09-12T09:40:54.630Z,41.50
2022-09-12T09:42:19.430Z,41.00
2022-09-12T09:43:28.876Z,40.20
2022-09-12T09:44:32.818Z,41.00
2022-09-12T09:45:36.208Z,41.00
2022-09-12T09:46:38.811Z,40.50
2022-09-12T09:47:42.199Z,40.50
2022-09-12T09:48:48.622Z,39.70
2022-09-12T09:49:50.968Z,40.30
2022-09-12T09:50:54.729Z,40.80
2022-09-12T09:52:00.789Z,41.00
2022-09-12T09:53:05.088Z,39.90
2022-09-12T09:54:19.687Z,39.10
2022-09-12T09:55:28.419Z,39.70
2022-09-12T09:56:37.067Z,39.20
2022-09-12T09:57:45.141Z,38.90
2022-09-12T09:58:47.642Z,39.80
2022-09-12T09:59:51.155Z,39.80
2022-09-12T10:01:00.269Z,39.70
2022-09-12T10:02:24.216Z,39.20
2022-09-12T10:03:33.359Z,39.60
2022-09-12T10:04:41.846Z,38.70
2022-09-12T10:05:49.988Z,40.10
2022-09-12T10:06:57.295Z,40.50
2022-09-12T10:08:00.391Z,39.40
2022-09-12T10:09:19.846Z,39.20
2022-09-12T10:10:23.186Z,39.20
2022-09-12T10:11:30.305Z,40.10
2022-09-12T10:12:33.093Z,40.20
2022-09-12T10:13:42.505Z,39.20
2022-09-12T10:14:57.463Z,40.20
2022-09-12T10:16:05.454Z,39.10
2022-09-12T10:17:33.812Z,38.50
2022-09-12T10:18:40.856Z,39.80
2022-09-12T10:19:45.553Z,40.20
2022-09-12T10:20:52.195Z,40.60
2022-09-12T10:21:57.101Z,40.30
2022-09-12T10:23:01.923Z,40.00
2022-09-12T10:24:23.772Z,40.40
2022-09-12T10:25:27.482Z,39.40
2022-09-12T10:26:37.941Z,38.80
2022-09-12T10:27:42.451Z,39.70
2022-09-12T10:28:53.497Z,39.60
2022-09-12T10:30:03.259Z,40.10
2022-09-12T10:31:10.576Z,40.10
2022-09-12T10:32:20.889Z,40.30
2022-09-12T10:33:26.019Z,39.50
2022-09-12T10:34:36.372Z,40.00
2022-09-12T10:35:49.757Z,39.90
2022-09-12T10:37:01.845Z,40.20
2022-09-12T10:38:13.621Z,40.80
2022-09-12T10:39:19.685Z,40.20
2022-09-12T10:40:26.391Z,39.80
2022-09-12T10:41:37.963Z,40.10
2022-09-12T10:42:49.981Z,40.20
2022-09-12T10:44:06.986Z,40.80
2022-09-12T10:45:26.348Z,40.50
2022-09-12T10:46:31.291Z,40.80
2022-09-12T10:47:34.673Z,40.70
2022-09-12T10:48:37.025Z,39.90
2022-09-12T10:49:40.404Z,40.00
2022-09-12T10:50:43.678Z,39.40
2022-09-12T10:51:47.010Z,40.30
2022-09-12T10:52:51.467Z,40.40
2022-09-12T10:53:57.409Z,42.40
2022-09-12T10:55:01.431Z,40.40
2022-09-12T10:56:12.006Z,40.50
2022-09-12T10:57:55.687Z,41.00
2022-09-12T10:59:20.230Z,40.60
2022-09-12T11:00:27.857Z,39.70
2022-09-12T11:01:40.557Z,38.90
2022-09-12T11:02:56.496Z,40.40
2022-09-12T11:04:25.439Z,40.30
2022-09-12T11:05:52.708Z,40.40
2022-09-12T11:07:26.305Z,39.70
2022-09-12T11:09:02.347Z,40.50
2022-09-12T11:10:31.945Z,40.60
2022-09-12T11:12:01.100Z,39.70
2022-09-12T11:13:25.752Z,40.60
2022-09-12T11:14:52.560Z,40.40
2022-09-12T11:16:13.718Z,40.30
2022-09-12T11:17:34.907Z,40.90
2022-09-12T11:19:03.988Z,40.80
2022-09-12T11:20:49.942Z,41.80
2022-09-12T11:22:20.031Z,41.00
2022-09-12T11:23:51.608Z,41.60
2022-09-12T11:25:20.491Z,41.30
2022-09-12T11:26:45.819Z,42.70
2022-09-12T11:28:13.552Z,41.70
2022-09-12T11:29:32.361Z,41.70
2022-09-12T11:30:50.438Z,41.90
2022-09-12T11:32:38.578Z,41.20
2022-09-12T11:33:44.422Z,40.70
2022-09-12T11:34:58.624Z,41.50
2022-09-12T11:36:06.257Z,41.40
2022-09-12T11:37:39.265Z,41.60
2022-09-12T11:39:13.917Z,41.30
2022-09-12T11:40:32.391Z,41.50
2022-09-12T11:41:42.814Z,42.20
2022-09-12T11:42:47.361Z,42.70
2022-09-12T11:43:58.271Z,42.80
2022-09-12T11:45:12.866Z,42.90
2022-09-12T11:46:22.312Z,42.40
2022-09-12T11:47:30.804Z,42.50
2022-09-12T11:48:38.652Z,42.70
2022-09-12T11:49:47.408Z,41.70
2022-09-12T11:50:52.648Z,42.40
2022-09-12T11:52:04.997Z,42.90
2022-09-12T11:53:17.153Z,42.50
2022-09-12T11:54:29.680Z,42.90
2022-09-12T11:55:50.286Z,42.70
2022-09-12T11:57:02.355Z,42.20
2022-09-12T11:58:05.232Z,42.40
2022-09-12T11:59:19.623Z,41.90
2022-09-12T12:00:24.688Z,42.50
2022-09-12T12:01:42.001Z,42.50
2022-09-12T12:02:59.557Z,42.70
2022-09-12T12:04:12.807Z,42.80
2022-09-12T12:05:22.479Z,42.80
2022-09-12T12:06:32.281Z,42.50
2022-09-12T12:07:45.411Z,42.80
2022-09-12T12:08:51.428Z,42.70
2022-09-12T12:09:55.146Z,42.20
2022-09-12T12:11:00.619Z,42.60
2022-09-12T12:12:11.628Z,42.40
2022-09-12T12:13:23.704Z,42.50
2022-09-12T12:14:33.065Z,42.70
2022-09-12T12:15:38.469Z,42.90
2022-09-12T12:16:45.762Z,43.00
2022-09-12T12:18:07.413Z,43.20
2022-09-12T12:19:35.813Z,42.80
2022-09-12T12:20:40.309Z,41.70
2022-09-12T12:21:44.633Z,42.20
2022-09-12T12:22:54.585Z,42.40
2022-09-12T12:24:16.258Z,42.50
2022-09-12T12:25:40.668Z,42.20
2022-09-12T12:27:01.954Z,42.30
2022-09-12T12:28:06.378Z,42.50
2022-09-12T12:29:11.138Z,42.10
2022-09-12T12:31:03.905Z,42.10
2022-09-12T12:32:28.232Z,42.80
2022-09-12T12:34:20.486Z,42.40
2022-09-12T12:35:46.315Z,41.20
2022-09-12T12:36:50.733Z,41.70
2022-09-12T12:37:56.888Z,42.50
2022-09-12T12:39:18.417Z,42.00
2022-09-12T12:40:29.897Z,42.00
2022-09-12T12:41:45.603Z,41.70
2022-09-12T12:43:31.509Z,41.50
2022-09-12T12:44:51.491Z,41.80
2022-09-12T12:46:13.708Z,41.90
2022-09-12T12:47:20.203Z,41.90
2022-09-12T12:48:25.827Z,42.20
2022-09-12T12:49:30.147Z,42.70
2022-09-12T12:50:32.880Z,42.40
2022-09-12T12:52:02.243Z,41.70
2022-09-12T12:53:07.019Z,42.10
2022-09-12T12:54:43.670Z,42.10
2022-09-12T12:55:51.821Z,42.20
2022-09-12T12:57:07.159Z,42.80
2022-09-12T12:58:32.767Z,42.60
2022-09-12T12:59:35.222Z,42.90
2022-09-12T13:00:42.109Z,43.00
2022-09-12T13:01:54.986Z,43.30
2022-09-12T13:03:03.366Z,43.10
2022-09-12T13:04:15.818Z,42.60
2022-09-12T13:05:25.349Z,43.00
2022-09-12T13:06:35.135Z,43.30
2022-09-12T13:07:41.345Z,43.50
2022-09-12T13:09:00.147Z,43.00
2022-09-12T13:10:06.815Z,43.50
2022-09-12T13:11:17.153Z,42.70
2022-09-12T13:12:25.059Z,42.80
2022-09-12T13:13:32.372Z,42.30
2022-09-12T13:14:52.649Z,42.00
2022-09-12T13:15:56.145Z,42.70
2022-09-12T13:17:02.316Z,42.60
2022-09-12T13:18:11.333Z,42.10
2022-09-12T13:19:23.281Z,42.40
2022-09-12T13:20:31.554Z,42.10
2022-09-12T13:21:34.070Z,42.30
2022-09-12T13:22:43.725Z,42.60
2022-09-12T13:24:02.095Z,43.20
2022-09-12T13:25:24.904Z,43.10
2022-09-12T13:26:36.406Z,43.10
2022-09-12T13:27:38.948Z,43.00
2022-09-12T13:28:42.410Z,43.20
2022-09-12T13:29:44.886Z,43.00
2022-09-12T13:30:57.282Z,42.60
2022-09-12T13:32:03.449Z,43.50
2022-09-12T13:33:19.206Z,43.50
2022-09-12T13:34:28.879Z,43.70
2022-09-12T13:35:46.799Z,44.10
2022-09-12T13:37:19.234Z,44.40
2022-09-12T13:38:37.300Z,44.40
2022-09-12T13:39:49.320Z,44.40
2022-09-12T13:41:17.982Z,44.20
2022-09-12T13:42:40.909Z,44.50
2022-09-12T13:43:46.947Z,44.20
2022-09-12T13:44:55.023Z,44.00
2022-09-12T13:45:57.591Z,44.40
2022-09-12T13:47:02.987Z,44.20
2022-09-12T13:48:07.472Z,43.70
2022-09-12T13:49:33.336Z,43.90
2022-09-12T13:50:47.320Z,43.70
2022-09-12T13:52:01.840Z,44.20
2022-09-12T13:53:13.771Z,43.90
2022-09-12T13:54:23.873Z,43.60
2022-09-12T13:55:33.065Z,43.80
2022-09-12T13:56:47.228Z,43.90
2022-09-12T13:58:00.318Z,43.90
2022-09-12T13:59:03.405Z,43.80
2022-09-12T14:00:19.266Z,43.90
2022-09-12T14:01:22.639Z,43.70
2022-09-12T14:02:29.387Z,43.90
2022-09-12T14:04:00.136Z,43.70
2022-09-12T14:05:21.338Z,43.40
2022-09-12T14:06:29.458Z,43.50
2022-09-12T14:07:33.942Z,44.10
2022-09-12T14:08:41.703Z,44.20
2022-09-12T14:09:53.569Z,44.30
2022-09-12T14:10:56.322Z,44.70
2022-09-12T14:12:03.235Z,44.60
2022-09-12T14:13:13.843Z,44.50
2022-09-12T14:14:27.798Z,45.00
2022-09-12T14:15:36.936Z,44.80
2022-09-12T14:16:42.191Z,45.00
2022-09-12T14:17:52.716Z,44.90
2022-09-12T14:18:56.324Z,44.70
2022-09-12T14:20:02.020Z,44.80
2022-09-12T14:21:12.772Z,44.80
2022-09-12T14:22:18.137Z,44.90
2022-09-12T14:23:28.700Z,44.80
2022-09-12T14:24:32.342Z,45.30
2022-09-12T14:25:41.358Z,45.40
2022-09-12T14:26:47.495Z,45.40
2022-09-12T14:27:55.806Z,45.30
2022-09-12T14:28:59.387Z,45.60
2022-09-12T14:30:07.491Z,45.70
2022-09-12T14:31:25.146Z,46.00
2022-09-12T14:32:27.689Z,46.40
2022-09-12T14:33:46.850Z,46.30
2022-09-12T14:35:05.590Z,45.90
2022-09-12T14:36:19.760Z,46.10
2022-09-12T14:37:25.428Z,46.20
2022-09-12T14:38:37.492Z,46.30
2022-09-12T14:39:44.361Z,46.20
2022-09-12T14:40:49.239Z,46.60
2022-09-12T14:42:07.326Z,46.60
2022-09-12T14:43:21.568Z,46.70
2022-09-12T14:44:28.257Z,46.80
2022-09-12T14:45:32.417Z,46.90
2022-09-12T14:48:54.632Z,47.30
2022-09-12T14:51:01.364Z,47.30
2022-09-12T14:52:10.028Z,47.50
2022-09-12T14:53:30.561Z,47.50
2022-09-12T14:54:42.796Z,47.70
2022-09-12T14:55:53.016Z,47.90
2022-09-12T14:58:16.574Z,47.60